createdAt,value
2023-06-19T00:01:28.381Z,94.43
2023-06-19T00:03:54.912Z,94.27
2023-06-19T00:06:21.484Z,94.65
2023-06-19T00:08:47.980Z,95.08
2023-06-19T00:11:14.544Z,95.66
2023-06-19T00:13:41.034Z,95.58
2023-06-19T00:16:07.623Z,96.86
2023-06-19T00:18:41.603Z,96.06
2023-06-19T00:21:09.381Z,96.85
2023-06-19T00:23:36.185Z,97.11
2023-06-19T00:26:04.623Z,96.93
2023-06-19T00:28:31.954Z,96.74
2023-06-19T00:30:58.512Z,96.17
2023-06-19T00:33:25.246Z,97.19
2023-06-19T00:35:52.535Z,97.64
2023-06-19T00:38:19.164Z,96.85
2023-06-19T00:40:45.634Z,97.46
2023-06-19T00:43:12.150Z,98.52
2023-06-19T00:45:40.008Z,98.89
2023-06-19T00:48:07.277Z,99.38
2023-06-19T00:50:34.251Z,98.88
2023-06-19T00:53:04.399Z,98.55
2023-06-19T00:55:33.240Z,97.48
2023-06-19T00:58:01.717Z,97.13
2023-06-19T01:00:28.313Z,98.21
2023-06-19T01:02:54.895Z,98.24
2023-06-19T01:05:21.557Z,98.69
2023-06-19T01:08:16.173Z,98.44
2023-06-19T01:10:54.799Z,98.99
2023-06-19T01:13:32.264Z,99.67
2023-06-19T01:15:59.818Z,99.35
2023-06-19T01:18:28.004Z,99.18
2023-06-19T01:20:54.519Z,99.39
2023-06-19T01:23:21.209Z,99.73
2023-06-19T01:25:47.639Z,99.88
2023-06-19T01:28:14.464Z,99.67
2023-06-19T01:30:43.002Z,99.91
2023-06-19T01:33:27.423Z,99.77
2023-06-19T01:35:54.567Z,100.00
2023-06-19T01:38:23.032Z,99.37
2023-06-19T01:40:51.193Z,100.00
2023-06-19T01:43:20.451Z,100.00
2023-06-19T01:45:47.021Z,100.00
2023-06-19T01:48:15.634Z,100.00
2023-06-19T01:50:51.747Z,100.00
2023-06-19T01:53:18.414Z,100.00
2023-06-19T01:55:45.016Z,100.00
2023-06-19T01:58:11.510Z,100.00
2023-06-19T02:00:38.509Z,100.00
2023-06-19T02:03:05.726Z,99.65
2023-06-19T02:05:32.540Z,99.30
2023-06-19T02:07:59.218Z,98.68
2023-06-19T02:10:25.855Z,98.22
2023-06-19T02:12:52.341Z,97.19
2023-06-19T02:15:18.854Z,96.86
2023-06-19T02:17:45.372Z,96.88
2023-06-19T02:20:12.603Z,96.97
2023-06-19T02:22:40.181Z,97.35
2023-06-19T02:25:07.533Z,98.42
2023-06-19T02:27:34.028Z,98.56
2023-06-19T02:30:00.491Z,98.84
2023-06-19T02:32:27.669Z,99.37
2023-06-19T02:34:54.198Z,98.29
2023-06-19T02:37:20.629Z,98.17
2023-06-19T02:39:47.094Z,99.21
2023-06-19T02:42:13.476Z,99.99
2023-06-19T02:44:39.848Z,99.41
2023-06-19T02:47:06.652Z,99.92
2023-06-19T02:49:33.255Z,98.64
2023-06-19T02:51:59.698Z,97.91
2023-06-19T02:54:26.236Z,97.95
2023-06-19T02:56:52.595Z,98.01
2023-06-19T02:59:19.000Z,98.40
2023-06-19T03:01:45.886Z,98.59
2023-06-19T03:04:13.569Z,97.21
2023-06-19T03:06:40.930Z,96.57
2023-06-19T03:09:13.056Z,96.25
2023-06-19T03:11:42.505Z,97.06
2023-06-19T03:14:09.770Z,95.69
2023-06-19T03:16:36.489Z,95.58
2023-06-19T03:19:03.373Z,96.48
2023-06-19T03:21:29.983Z,97.29
2023-06-19T03:23:56.576Z,97.48
2023-06-19T03:26:23.403Z,96.17
2023-06-19T03:28:49.889Z,96.71
2023-06-19T03:31:16.517Z,96.55
2023-06-19T03:33:42.947Z,96.33
2023-06-19T03:36:09.969Z,97.31
2023-06-19T03:38:36.387Z,97.71
2023-06-19T03:41:03.174Z,97.98
2023-06-19T03:43:29.644Z,97.65
2023-06-19T03:45:56.094Z,98.17
2023-06-19T03:48:22.519Z,97.34
2023-06-19T03:50:49.095Z,96.60
2023-06-19T03:53:15.580Z,96.14
2023-06-19T03:55:42.033Z,96.47
2023-06-19T03:58:08.515Z,95.44
2023-06-19T04:00:34.999Z,95.62
2023-06-19T04:03:01.499Z,95.87
2023-06-19T04:05:28.239Z,95.42
2023-06-19T04:07:54.594Z,95.96
2023-06-19T04:10:21.150Z,96.26
2023-06-19T04:12:48.839Z,95.89
2023-06-19T04:15:15.320Z,96.02
2023-06-19T04:17:41.824Z,96.52
2023-06-19T04:20:12.194Z,96.65
2023-06-19T04:22:39.854Z,96.58
2023-06-19T04:25:08.242Z,96.08
2023-06-19T04:27:35.137Z,95.60
2023-06-19T04:30:03.433Z,95.33
2023-06-19T04:32:30.097Z,96.19
2023-06-19T04:34:56.695Z,95.52
2023-06-19T04:37:23.344Z,95.58
2023-06-19T04:39:49.767Z,95.07
2023-06-19T04:42:21.683Z,93.77
2023-06-19T04:44:48.455Z,93.33
2023-06-19T04:47:18.424Z,92.21
2023-06-19T04:49:44.830Z,87.56
2023-06-19T04:52:12.341Z,82.89
2023-06-19T04:54:39.226Z,81.80
2023-06-19T04:57:06.336Z,81.35
2023-06-19T04:59:33.013Z,80.71
2023-06-19T05:01:59.598Z,80.20
2023-06-19T05:04:26.696Z,79.22
2023-06-19T05:06:53.274Z,74.05
2023-06-19T05:09:20.992Z,75.33
2023-06-19T05:11:47.452Z,76.79
2023-06-19T05:14:15.449Z,78.06
2023-06-19T05:16:42.241Z,80.13
2023-06-19T05:19:09.067Z,78.47
2023-06-19T05:21:35.935Z,78.37
2023-06-19T05:24:02.841Z,77.10
2023-06-19T05:26:32.066Z,78.65
2023-06-19T05:28:58.546Z,79.70
2023-06-19T05:31:25.012Z,77.12
2023-06-19T05:33:51.382Z,81.42
2023-06-19T05:36:17.905Z,78.11
2023-06-19T05:38:44.394Z,74.17
2023-06-19T05:41:10.993Z,73.43
2023-06-19T05:43:37.417Z,74.02
2023-06-19T05:46:03.995Z,74.55
2023-06-19T05:48:30.501Z,73.07
2023-06-19T05:50:56.919Z,67.38
2023-06-19T05:53:23.634Z,62.39
2023-06-19T05:55:50.213Z,62.46
2023-06-19T05:58:20.951Z,60.36
2023-06-19T06:00:48.143Z,58.93
2023-06-19T06:03:14.688Z,57.69
2023-06-19T06:05:41.395Z,57.57
2023-06-19T06:08:07.950Z,55.77
2023-06-19T06:10:34.443Z,56.83
2023-06-19T06:13:00.961Z,56.53
2023-06-19T06:15:27.445Z,57.76
2023-06-19T06:17:54.039Z,56.48
2023-06-19T06:20:20.628Z,57.82
2023-06-19T06:22:47.159Z,57.01
2023-06-19T06:25:14.242Z,55.81
2023-06-19T06:27:41.354Z,56.11
2023-06-19T06:30:08.304Z,56.25
2023-06-19T06:32:35.190Z,55.51
2023-06-19T06:35:01.925Z,54.05
2023-06-19T06:37:28.409Z,53.55
2023-06-19T06:39:54.871Z,54.08
2023-06-19T06:42:21.666Z,54.43
2023-06-19T06:44:48.208Z,55.62
2023-06-19T06:47:14.851Z,55.03
2023-06-19T06:49:41.378Z,54.97
2023-06-19T06:52:08.392Z,56.08
2023-06-19T06:54:35.012Z,55.50
2023-06-19T06:57:01.506Z,53.95
2023-06-19T06:59:28.579Z,52.94
2023-06-19T07:01:58.371Z,52.57
2023-06-19T07:04:25.086Z,52.96
2023-06-19T07:06:51.907Z,53.54
2023-06-19T07:09:19.076Z,53.96
2023-06-19T07:11:45.542Z,53.73
2023-06-19T07:14:12.096Z,53.54
2023-06-19T07:16:38.621Z,52.74
2023-06-19T07:19:05.072Z,52.74
2023-06-19T07:21:32.112Z,53.54
2023-06-19T07:23:58.807Z,53.11
2023-06-19T07:26:25.306Z,53.41
2023-06-19T07:28:51.685Z,52.48
2023-06-19T07:31:18.130Z,53.10
2023-06-19T07:33:44.536Z,53.11
2023-06-19T07:36:15.252Z,52.99
2023-06-19T07:38:43.536Z,51.54
2023-06-19T07:41:11.103Z,51.37
2023-06-19T07:43:38.496Z,51.54
2023-06-19T07:46:05.574Z,51.58
2023-06-19T07:48:32.151Z,52.52
2023-06-19T07:50:58.569Z,52.46
2023-06-19T07:53:24.966Z,50.47
2023-06-19T07:55:51.495Z,52.10
2023-06-19T07:58:18.208Z,52.13
2023-06-19T08:00:44.918Z,52.77
2023-06-19T08:03:11.666Z,54.42
2023-06-19T08:05:38.557Z,54.29
2023-06-19T08:08:05.364Z,52.57
2023-06-19T08:10:32.146Z,52.35
2023-06-19T08:12:58.809Z,53.04
2023-06-19T08:15:28.015Z,50.97
2023-06-19T08:17:54.519Z,51.32
2023-06-19T08:20:22.494Z,50.43
2023-06-19T08:22:49.255Z,50.33
2023-06-19T08:25:16.362Z,50.67
2023-06-19T08:27:42.804Z,50.44
2023-06-19T08:30:09.563Z,49.79
2023-06-19T08:32:36.181Z,49.21
2023-06-19T08:35:04.024Z,52.18
2023-06-19T08:37:30.658Z,51.52
2023-06-19T08:39:57.247Z,49.68
2023-06-19T08:42:23.893Z,47.98
2023-06-19T08:44:50.564Z,49.61
2023-06-19T08:47:17.640Z,50.63
2023-06-19T08:49:44.734Z,50.38
2023-06-19T08:52:11.400Z,50.19
2023-06-19T08:54:44.909Z,50.96
2023-06-19T08:57:13.438Z,48.82
2023-06-19T08:59:40.355Z,48.88
2023-06-19T09:02:07.523Z,48.49
2023-06-19T09:04:34.951Z,49.99
2023-06-19T09:07:05.367Z,49.38
2023-06-19T09:09:33.983Z,49.34
2023-06-19T09:12:01.855Z,49.21
2023-06-19T09:14:45.956Z,48.99
2023-06-19T09:17:18.299Z,50.36
2023-06-19T09:19:52.869Z,50.61
2023-06-19T09:22:21.967Z,51.09
2023-06-19T09:24:49.689Z,49.18
2023-06-19T09:27:21.704Z,48.98
2023-06-19T09:29:50.791Z,46.79
2023-06-19T09:32:29.333Z,48.65
2023-06-19T09:34:59.606Z,47.09
2023-06-19T09:37:28.818Z,45.41
2023-06-19T09:40:11.805Z,45.75
2023-06-19T09:42:40.440Z,45.89
2023-06-19T09:45:09.047Z,46.84
2023-06-19T09:47:45.779Z,47.48
2023-06-19T09:50:16.053Z,46.03
2023-06-19T09:52:44.616Z,46.00
2023-06-19T09:55:14.199Z,45.74
2023-06-19T09:57:42.781Z,46.36
2023-06-19T10:00:16.692Z,48.18
2023-06-19T10:02:45.585Z,48.11
2023-06-19T10:05:15.822Z,47.81
2023-06-19T10:07:44.815Z,47.34
2023-06-19T10:10:23.269Z,46.23
2023-06-19T10:12:50.589Z,47.10
2023-06-19T10:15:18.842Z,47.24
2023-06-19T10:18:01.264Z,46.64
2023-06-19T10:20:38.249Z,46.35
2023-06-19T10:23:18.662Z,46.31
2023-06-19T10:25:48.985Z,46.15
2023-06-19T10:28:23.829Z,44.74
2023-06-19T10:31:08.280Z,44.31
2023-06-19T10:33:37.835Z,46.19
2023-06-19T10:36:24.415Z,44.58
2023-06-19T10:38:50.982Z,44.30
2023-06-19T10:41:19.264Z,43.71
2023-06-19T10:44:07.011Z,43.34
2023-06-19T10:46:36.752Z,43.14
2023-06-19T10:49:06.038Z,41.97
2023-06-19T10:51:35.652Z,42.43
2023-06-19T10:54:02.266Z,40.84
2023-06-19T10:56:29.865Z,40.68
2023-06-19T10:59:12.743Z,40.71
2023-06-19T11:01:42.351Z,40.62
2023-06-19T11:04:11.761Z,39.99
2023-06-19T11:06:39.664Z,39.94
2023-06-19T11:09:08.186Z,40.86
2023-06-19T11:11:48.563Z,41.24
2023-06-19T11:14:18.067Z,41.08
2023-06-19T11:16:47.948Z,41.45
2023-06-19T11:19:19.873Z,42.66
2023-06-19T11:21:49.702Z,42.90
2023-06-19T11:24:17.049Z,42.68
2023-06-19T11:26:50.312Z,42.95
2023-06-19T11:29:27.956Z,42.33
2023-06-19T11:32:07.387Z,43.54
2023-06-19T11:34:37.540Z,42.76
2023-06-19T11:37:16.450Z,43.43
2023-06-19T11:39:47.290Z,42.51
2023-06-19T11:42:13.775Z,42.92
2023-06-19T11:44:56.151Z,42.47
2023-06-19T11:47:22.838Z,43.28
2023-06-19T11:49:50.481Z,43.94
2023-06-19T11:52:17.767Z,43.11
2023-06-19T11:54:44.600Z,42.37
2023-06-19T11:57:14.425Z,42.18
2023-06-19T11:59:42.016Z,43.36
2023-06-19T12:02:09.552Z,43.51
2023-06-19T12:04:37.137Z,42.91
2023-06-19T12:07:05.153Z,42.30
2023-06-19T12:09:35.592Z,43.48
2023-06-19T12:12:02.465Z,43.27
2023-06-19T12:14:28.922Z,42.91
2023-06-19T12:16:55.437Z,40.56
2023-06-19T12:19:22.038Z,43.74
2023-06-19T12:21:48.511Z,41.71
2023-06-19T12:24:15.290Z,39.30
2023-06-19T12:26:42.087Z,38.25
2023-06-19T12:29:09.132Z,38.76
2023-06-19T12:31:37.406Z,38.65
2023-06-19T12:34:17.011Z,38.86
2023-06-19T12:36:51.884Z,40.09
2023-06-19T12:39:18.555Z,37.85
2023-06-19T12:41:45.071Z,36.71
2023-06-19T12:44:16.809Z,38.23
2023-06-19T12:46:43.511Z,38.52
2023-06-19T12:49:19.161Z,38.19
2023-06-19T12:51:52.636Z,35.61
2023-06-19T12:54:25.758Z,37.57
2023-06-19T12:57:25.587Z,36.77
2023-06-19T12:59:52.188Z,35.89
2023-06-19T13:02:18.747Z,37.42
2023-06-19T13:04:45.404Z,35.41
2023-06-19T13:07:11.980Z,34.69
2023-06-19T13:09:38.480Z,35.51
2023-06-19T13:12:05.480Z,38.37
2023-06-19T13:14:33.236Z,37.76
2023-06-19T13:16:59.770Z,37.39
2023-06-19T13:19:26.455Z,34.81
2023-06-19T13:21:53.174Z,35.58
2023-06-19T13:24:19.817Z,34.73
2023-06-19T13:26:46.446Z,33.67
2023-06-19T13:29:13.314Z,34.39
2023-06-19T13:31:39.761Z,33.20
2023-06-19T13:34:06.410Z,34.45
2023-06-19T13:36:39.465Z,33.28
2023-06-19T13:39:06.070Z,33.55
2023-06-19T13:41:35.744Z,33.53
2023-06-19T13:44:02.459Z,33.16
2023-06-19T13:46:41.330Z,35.14
2023-06-19T13:49:12.002Z,34.15
2023-06-19T13:51:41.240Z,35.43
2023-06-19T13:54:10.711Z,36.32
2023-06-19T13:56:42.962Z,36.03
2023-06-19T13:59:10.130Z,36.81
2023-06-19T14:01:36.648Z,36.17
2023-06-19T14:04:03.635Z,33.47
2023-06-19T14:06:30.154Z,31.57
2023-06-19T14:08:59.675Z,31.50
2023-06-19T14:11:26.191Z,30.71
2023-06-19T14:13:52.645Z,29.38
2023-06-19T14:16:19.112Z,29.68
2023-06-19T14:18:45.604Z,30.73
2023-06-19T14:21:11.996Z,31.63
2023-06-19T14:23:44.014Z,32.81
2023-06-19T14:26:12.081Z,33.04
2023-06-19T14:28:40.259Z,31.98
2023-06-19T14:31:07.184Z,31.20
2023-06-19T14:33:35.742Z,33.72
2023-06-19T14:36:03.882Z,31.16
2023-06-19T14:38:34.329Z,30.90
2023-06-19T14:41:02.459Z,31.67
2023-06-19T14:43:31.661Z,31.85
2023-06-19T14:45:59.804Z,31.87
2023-06-19T14:48:26.233Z,33.62
2023-06-19T14:50:53.314Z,32.77
2023-06-19T14:53:19.794Z,32.22
2023-06-19T14:55:48.045Z,32.83
2023-06-19T14:58:15.290Z,32.48
2023-06-19T15:00:42.405Z,33.97
2023-06-19T15:03:09.083Z,33.67
2023-06-19T15:05:35.763Z,34.61
2023-06-19T15:08:02.383Z,35.75
2023-06-19T15:10:28.987Z,36.41
2023-06-19T15:12:55.434Z,38.36
2023-06-19T15:15:21.893Z,39.16
2023-06-19T15:17:48.345Z,39.37
2023-06-19T15:20:17.610Z,39.49
2023-06-19T15:22:44.112Z,39.13
2023-06-19T15:25:10.697Z,39.88
2023-06-19T15:27:37.230Z,40.62
2023-06-19T15:30:04.073Z,40.99
2023-06-19T15:32:30.686Z,42.24
2023-06-19T15:34:57.109Z,42.56
2023-06-19T15:37:23.893Z,43.42
2023-06-19T15:39:52.610Z,43.76
2023-06-19T15:42:19.039Z,44.01
2023-06-19T15:44:45.572Z,44.74
2023-06-19T15:47:11.997Z,44.47
2023-06-19T15:49:38.839Z,45.40
2023-06-19T15:52:06.030Z,44.25
2023-06-19T15:54:32.439Z,43.95
2023-06-19T15:56:59.570Z,44.89
2023-06-19T15:59:26.158Z,44.79
2023-06-19T16:01:52.722Z,44.40
2023-06-19T16:04:19.213Z,44.84
2023-06-19T16:06:45.712Z,44.64
2023-06-19T16:09:12.135Z,45.06
2023-06-19T16:11:38.714Z,44.94
2023-06-19T16:14:05.218Z,45.06
2023-06-19T16:16:31.669Z,44.28
2023-06-19T16:18:58.050Z,44.11
2023-06-19T16:21:25.578Z,45.22
2023-06-19T16:23:52.000Z,44.97
2023-06-19T16:26:18.486Z,43.36
2023-06-19T16:28:44.862Z,43.47
2023-06-19T16:31:12.220Z,44.29
2023-06-19T16:33:39.661Z,44.69
2023-06-19T16:36:08.191Z,44.62
2023-06-19T16:38:35.377Z,44.01
2023-06-19T16:41:01.797Z,44.11
2023-06-19T16:43:28.273Z,43.42
2023-06-19T16:45:54.833Z,44.43
2023-06-19T16:48:21.359Z,45.64
2023-06-19T16:50:47.850Z,44.82
2023-06-19T16:53:14.451Z,44.88
2023-06-19T16:55:40.995Z,44.28
2023-06-19T16:58:07.442Z,44.82
2023-06-19T17:00:33.975Z,45.26
2023-06-19T17:03:00.598Z,45.39
2023-06-19T17:05:27.881Z,44.75
2023-06-19T17:07:54.477Z,45.96
2023-06-19T17:10:20.961Z,46.36
2023-06-19T17:12:47.458Z,46.42
2023-06-19T17:15:13.919Z,46.74
2023-06-19T17:17:40.839Z,46.71
2023-06-19T17:20:09.940Z,46.98
2023-06-19T17:22:36.726Z,46.94
2023-06-19T17:25:03.353Z,47.35
2023-06-19T17:27:29.847Z,47.23
2023-06-19T17:29:56.295Z,47.17
2023-06-19T17:32:22.793Z,47.08
2023-06-19T17:34:49.505Z,46.77
2023-06-19T17:37:15.999Z,47.35
2023-06-19T17:39:43.284Z,45.22
2023-06-19T17:42:12.675Z,45.54
2023-06-19T17:44:39.183Z,45.34
2023-06-19T17:47:05.864Z,44.09
2023-06-19T17:49:32.301Z,44.28
2023-06-19T17:51:59.106Z,44.15
2023-06-19T17:54:25.727Z,44.03
2023-06-19T17:56:52.274Z,43.64
2023-06-19T17:59:18.860Z,44.10
2023-06-19T18:01:45.304Z,43.67
2023-06-19T18:04:12.009Z,43.78
2023-06-19T18:06:38.507Z,44.21
2023-06-19T18:09:06.873Z,45.45
2023-06-19T18:11:33.444Z,44.85
2023-06-19T18:14:00.000Z,44.80
2023-06-19T18:16:28.093Z,45.64
2023-06-19T18:18:54.621Z,46.50
2023-06-19T18:21:21.276Z,46.64
2023-06-19T18:23:48.521Z,46.87
2023-06-19T18:26:16.447Z,46.34
2023-06-19T18:28:42.940Z,46.95
2023-06-19T18:31:09.429Z,47.12
2023-06-19T18:33:35.906Z,47.55
2023-06-19T18:36:02.399Z,47.22
2023-06-19T18:38:30.998Z,46.93
2023-06-19T18:41:06.373Z,46.90
2023-06-19T18:43:35.288Z,46.82
2023-06-19T18:46:02.455Z,46.83
2023-06-19T18:48:32.188Z,47.22
2023-06-19T18:50:59.207Z,47.37
2023-06-19T18:53:25.665Z,47.64
2023-06-19T18:55:55.444Z,48.04
2023-06-19T18:58:22.882Z,47.46
2023-06-19T19:00:50.022Z,47.91
2023-06-19T19:03:16.763Z,48.74
2023-06-19T19:05:43.405Z,47.62
2023-06-19T19:08:11.628Z,47.66
2023-06-19T19:10:38.656Z,48.54
2023-06-19T19:13:05.413Z,48.33
2023-06-19T19:15:31.915Z,49.41
2023-06-19T19:17:58.551Z,49.57
2023-06-19T19:20:25.506Z,50.46
2023-06-19T19:22:52.208Z,49.92
2023-06-19T19:25:18.765Z,49.58
2023-06-19T19:27:45.359Z,50.29
2023-06-19T19:30:13.078Z,51.88
2023-06-19T19:32:39.757Z,51.77
2023-06-19T19:35:06.887Z,51.49
2023-06-19T19:37:33.379Z,52.54
2023-06-19T19:40:00.468Z,53.40
2023-06-19T19:42:28.062Z,55.16
2023-06-19T19:44:54.828Z,55.43
2023-06-19T19:47:21.996Z,57.65
2023-06-19T19:49:48.474Z,57.84
2023-06-19T19:52:15.122Z,58.58
2023-06-19T19:54:41.594Z,57.93
2023-06-19T19:57:08.277Z,59.87
2023-06-19T19:59:37.550Z,60.43
2023-06-19T20:02:04.405Z,60.38
2023-06-19T20:04:30.824Z,59.66
2023-06-19T20:06:57.303Z,59.44
2023-06-19T20:09:23.740Z,59.79
2023-06-19T20:11:51.064Z,61.52
2023-06-19T20:14:17.553Z,61.64
2023-06-19T20:16:47.716Z,62.09
2023-06-19T20:19:17.083Z,62.38
2023-06-19T20:21:44.104Z,61.95
2023-06-19T20:24:10.675Z,62.13
2023-06-19T20:26:37.463Z,63.05
2023-06-19T20:29:06.660Z,64.48
2023-06-19T20:31:33.588Z,63.77
2023-06-19T20:34:00.068Z,64.18
2023-06-19T20:36:27.483Z,64.31
2023-06-19T20:38:54.076Z,65.80
2023-06-19T20:41:20.707Z,65.31
2023-06-19T20:43:49.581Z,66.39
2023-06-19T20:46:16.051Z,68.40
2023-06-19T20:48:44.303Z,68.21
2023-06-19T20:51:11.186Z,67.89
2023-06-19T20:53:37.868Z,68.90
2023-06-19T20:56:04.570Z,68.89
2023-06-19T20:58:34.402Z,69.41
2023-06-19T21:01:01.264Z,70.29
2023-06-19T21:03:31.651Z,70.84
2023-06-19T21:05:58.457Z,71.63
2023-06-19T21:08:31.972Z,71.98
2023-06-19T21:11:01.605Z,71.50
2023-06-19T21:13:28.096Z,71.34
2023-06-19T21:15:54.563Z,71.88
2023-06-19T21:18:20.971Z,71.92
2023-06-19T21:20:47.608Z,71.52
2023-06-19T21:23:14.144Z,71.96
2023-06-19T21:25:40.893Z,72.41
2023-06-19T21:28:07.445Z,72.82
2023-06-19T21:30:33.959Z,73.56
2023-06-19T21:33:00.501Z,74.03
2023-06-19T21:35:27.099Z,73.76
2023-06-19T21:37:53.660Z,73.42
2023-06-19T21:40:20.088Z,74.22
2023-06-19T21:42:46.653Z,73.98
2023-06-19T21:45:13.107Z,74.31
2023-06-19T21:47:40.062Z,74.91
2023-06-19T21:50:07.126Z,76.35
2023-06-19T21:52:34.079Z,77.43
2023-06-19T21:55:00.490Z,76.72
2023-06-19T21:57:26.973Z,76.64
2023-06-19T21:59:53.421Z,77.66
2023-06-19T22:02:21.279Z,77.11
2023-06-19T22:04:47.863Z,77.80
2023-06-19T22:07:15.335Z,77.90
2023-06-19T22:09:41.805Z,78.36
2023-06-19T22:12:09.129Z,77.46
2023-06-19T22:14:41.166Z,78.14
2023-06-19T22:17:08.585Z,78.98
2023-06-19T22:19:36.988Z,79.03
2023-06-19T22:22:03.528Z,79.15
2023-06-19T22:24:30.364Z,77.93
2023-06-19T22:26:56.965Z,78.47
2023-06-19T22:29:23.386Z,77.92
2023-06-19T22:31:50.744Z,79.33
2023-06-19T22:34:17.405Z,79.32
2023-06-19T22:36:44.064Z,79.00
2023-06-19T22:39:10.648Z,79.38
2023-06-19T22:41:38.523Z,79.42
2023-06-19T22:44:05.632Z,79.38
2023-06-19T22:46:32.202Z,79.66
2023-06-19T22:48:58.774Z,79.10
2023-06-19T22:51:25.209Z,80.08
2023-06-19T22:53:51.633Z,80.06
2023-06-19T22:56:18.104Z,79.94
2023-06-19T22:58:45.584Z,79.94
2023-06-19T23:01:12.110Z,80.68
2023-06-19T23:03:41.175Z,81.11
2023-06-19T23:06:08.684Z,81.04
2023-06-19T23:08:41.866Z,80.91
2023-06-19T23:11:09.442Z,81.14
2023-06-19T23:13:40.099Z,80.85
2023-06-19T23:16:10.299Z,81.28
2023-06-19T23:18:37.772Z,82.31
2023-06-19T23:21:04.542Z,82.96
2023-06-19T23:23:33.847Z,83.27
2023-06-19T23:26:03.058Z,82.91
2023-06-19T23:28:32.609Z,83.07
2023-06-19T23:31:00.233Z,82.46
2023-06-19T23:33:27.096Z,82.04
2023-06-19T23:35:57.321Z,81.44
2023-06-19T23:38:26.635Z,81.27
2023-06-19T23:40:53.309Z,80.71
2023-06-19T23:43:19.766Z,80.94
2023-06-19T23:45:46.663Z,81.26
2023-06-19T23:48:13.362Z,81.14
2023-06-19T23:50:39.757Z,80.95
2023-06-19T23:53:06.284Z,80.88
2023-06-19T23:55:32.828Z,81.39
2023-06-19T23:57:59.361Z,81.07
